Time;durP1;ratioP1;P1;durP2;ratioP2;P2;SDS_P1;SDS_P2;PMS_P1;PMS_P2;Temp;Humidity;BMP_temperature;BMP_pressure;BME280_temperature;BME280_humidity;BME280_pressure;Samples;Min_cycle;Max_cycle;Signal;HPM_P1;HPM_P2
2023/09/19 00:01:08;;;;;;;1.63;1.53;;;16.60;99.90;;;;;;5052697;28;20463;-69
2023/09/19 00:03:42;;;;;;;1.97;1.50;;;16.60;99.90;;;;;;5050512;28;20464;-69
2023/09/19 00:06:07;;;;;;;2.00;1.60;;;16.60;99.90;;;;;;5047895;28;20439;-69
2023/09/19 00:08:34;;;;;;;2.03;1.87;;;16.60;99.90;;;;;;5055155;28;20435;-69
2023/09/19 00:11:05;;;;;;;1.93;1.73;;;16.50;99.90;;;;;;5050652;28;20252;-69
2023/09/19 00:13:31;;;;;;;1.80;1.67;;;16.50;99.90;;;;;;5051458;28;20439;-69
2023/09/19 00:15:58;;;;;;;1.83;1.20;;;16.60;99.90;;;;;;5053192;28;21011;-69
2023/09/19 00:18:32;;;;;;;3.63;1.60;;;16.70;99.90;;;;;;5049568;28;20435;-69
2023/09/19 00:21:00;;;;;;;1.67;1.57;;;16.50;99.90;;;;;;5049762;28;20455;-69
2023/09/19 00:23:26;;;;;;;1.50;1.40;;;16.40;99.90;;;;;;5051341;28;20481;-69
2023/09/19 00:25:57;;;;;;;1.93;1.50;;;16.40;99.90;;;;;;5050544;28;20444;-69
2023/09/19 00:28:22;;;;;;;2.00;1.90;;;16.40;99.90;;;;;;5055114;28;20482;-69
2023/09/19 00:30:51;;;;;;;2.03;1.90;;;16.40;99.90;;;;;;5050670;28;20475;-69
2023/09/19 00:33:18;;;;;;;1.60;1.50;;;16.40;99.90;;;;;;5052380;28;21610;-69
2023/09/19 00:35:54;;;;;;;2.80;1.70;;;16.40;99.90;;;;;;5049886;28;20486;-69
2023/09/19 00:38:22;;;;;;;4.07;2.00;;;16.30;99.90;;;;;;5050608;28;20435;-69
2023/09/19 00:40:49;;;;;;;2.50;1.20;;;16.40;99.90;;;;;;5050658;28;21005;-69
2023/09/19 00:43:14;;;;;;;1.47;1.37;;;16.40;99.90;;;;;;5052627;28;20435;-69
2023/09/19 00:45:45;;;;;;;1.80;1.70;;;16.30;99.90;;;;;;5049610;28;20456;-69
2023/09/19 00:48:11;;;;;;;2.57;1.90;;;16.40;99.90;;;;;;5042844;28;20186;-69
2023/09/19 00:50:41;;;;;;;1.67;1.57;;;16.50;99.90;;;;;;5050706;28;20466;-69
2023/09/19 00:53:08;;;;;;;2.27;1.80;;;16.50;99.90;;;;;;5050149;28;20431;-69
2023/09/19 00:55:35;;;;;;;1.90;1.80;;;16.50;99.90;;;;;;5053808;28;20447;-69
2023/09/19 00:58:01;;;;;;;1.77;1.67;;;16.50;99.90;;;;;;5053861;28;20565;-69
2023/09/19 01:00:27;;;;;;;3.13;1.70;;;16.50;99.90;;;;;;5049251;28;20472;-69
2023/09/19 01:02:52;;;;;;;1.90;1.70;;;16.50;99.90;;;;;;5048974;28;20440;-69
2023/09/19 01:05:18;;;;;;;1.60;1.50;;;16.50;99.90;;;;;;5046073;28;20718;-69
2023/09/19 01:07:44;;;;;;;1.80;1.70;;;16.50;99.90;;;;;;5047226;28;20562;-69
2023/09/19 01:10:16;;;;;;;1.77;1.67;;;16.50;99.90;;;;;;5050741;28;20790;-69
2023/09/19 01:13:17;;;;;;;1.27;1.17;;;16.50;99.90;;;;;;5048754;28;20436;-69
2023/09/19 01:16:11;;;;;;;1.93;1.60;;;16.40;99.90;;;;;;5051077;28;20427;-69
2023/09/19 01:19:26;;;;;;;2.00;1.70;;;16.50;99.90;;;;;;5060511;28;20437;-69
2023/09/19 01:22:10;;;;;;;1.73;1.63;;;16.50;99.90;;;;;;4999873;28;20806;-70
2023/09/19 01:25:19;;;;;;;1.50;1.40;;;16.50;99.90;;;;;;5050915;28;20472;-69
2023/09/19 01:28:07;;;;;;;2.53;1.70;;;16.50;99.90;;;;;;5054523;28;20526;-69
2023/09/19 01:30:39;;;;;;;1.67;1.50;;;16.50;99.90;;;;;;5062939;28;20436;-69
2023/09/19 01:33:06;;;;;;;1.60;1.50;;;16.50;99.90;;;;;;5068694;28;20783;-69
2023/09/19 01:35:34;;;;;;;1.53;1.43;;;16.50;99.90;;;;;;5066689;28;20494;-69
2023/09/19 01:37:59;;;;;;;2.67;1.60;;;16.50;99.90;;;;;;5061243;28;20956;-69
2023/09/19 01:40:25;;;;;;;2.50;1.60;;;16.60;99.90;;;;;;5054634;28;20454;-69
2023/09/19 01:43:26;;;;;;;1.83;1.43;;;16.50;99.90;;;;;;5062939;28;20605;-69
2023/09/19 01:46:09;;;;;;;2.10;1.50;;;16.60;99.90;;;;;;5058787;28;20543;-69
2023/09/19 01:49:22;;;;;;;2.17;1.50;;;16.60;99.90;;;;;;5069246;28;20428;-69
2023/09/19 01:52:02;;;;;;;1.53;1.43;;;16.60;99.90;;;;;;5016279;28;21048;-69
2023/09/19 01:54:37;;;;;;;1.30;1.20;;;16.50;99.90;;;;;;5048464;28;20431;-69
2023/09/19 01:57:14;;;;;;;1.90;1.80;;;16.70;99.90;;;;;;5047752;28;20431;-69
2023/09/19 01:59:48;;;;;;;2.10;1.40;;;16.60;99.90;;;;;;5051344;28;20447;-69
2023/09/19 02:02:17;;;;;;;3.93;1.30;;;16.60;99.90;;;;;;5053372;28;20863;-69
2023/09/19 02:04:43;;;;;;;3.00;1.60;;;16.50;99.90;;;;;;5053943;28;20455;-69
2023/09/19 02:07:08;;;;;;;4.57;1.43;;;16.60;99.90;;;;;;5056505;28;20813;-69
2023/09/19 02:09:35;;;;;;;2.20;1.60;;;16.50;99.90;;;;;;5053307;28;20551;-69
2023/09/19 02:12:01;;;;;;;2.03;1.40;;;16.40;99.90;;;;;;5052482;28;20202;-69
2023/09/19 02:14:27;;;;;;;1.50;1.40;;;16.40;99.90;;;;;;5053655;28;20420;-69
2023/09/19 02:16:53;;;;;;;4.30;1.53;;;16.40;99.90;;;;;;5055093;28;20446;-69
2023/09/19 02:19:20;;;;;;;1.80;1.40;;;16.30;99.90;;;;;;5052430;28;20182;-69
2023/09/19 02:21:46;;;;;;;1.67;1.43;;;16.30;99.90;;;;;;5053782;28;20790;-69
2023/09/19 02:24:15;;;;;;;1.50;1.20;;;16.30;99.90;;;;;;5053684;28;20447;-69
2023/09/19 02:26:40;;;;;;;1.63;1.53;;;16.30;99.90;;;;;;5051267;28;20436;-69
2023/09/19 02:29:06;;;;;;;2.27;1.40;;;16.20;99.90;;;;;;5058137;28;20471;-69
2023/09/19 02:31:31;;;;;;;1.77;1.50;;;16.20;99.90;;;;;;5070360;28;20192;-69
2023/09/19 02:33:57;;;;;;;2.60;1.50;;;16.10;99.90;;;;;;5066992;28;20189;-69
2023/09/19 02:36:23;;;;;;;1.50;1.40;;;16.10;99.90;;;;;;5063794;28;20648;-69
2023/09/19 02:38:49;;;;;;;1.80;1.70;;;16.10;99.90;;;;;;5065692;28;20578;-69
2023/09/19 02:41:15;;;;;;;1.63;1.53;;;16.10;99.90;;;;;;5056712;28;20538;-69
2023/09/19 02:43:40;;;;;;;1.97;1.70;;;16.00;99.90;;;;;;5051678;28;20559;-69
2023/09/19 02:46:06;;;;;;;1.50;1.40;;;16.00;99.90;;;;;;5059258;28;20192;-69
2023/09/19 02:48:32;;;;;;;1.60;1.50;;;16.00;99.90;;;;;;5068145;28;20306;-69
2023/09/19 02:50:57;;;;;;;2.07;1.70;;;15.90;99.90;;;;;;5060060;28;20444;-69
2023/09/19 02:53:23;;;;;;;2.50;1.70;;;15.90;99.90;;;;;;5053233;28;20528;-69
2023/09/19 02:55:49;;;;;;;1.80;1.70;;;15.90;99.90;;;;;;5053298;28;20576;-69
2023/09/19 02:58:15;;;;;;;1.70;1.50;;;15.90;99.90;;;;;;5052145;28;20514;-69
2023/09/19 03:00:47;;;;;;;2.17;1.60;;;15.90;99.90;;;;;;5050184;28;20193;-69
2023/09/19 03:03:13;;;;;;;2.23;1.63;;;16.00;99.90;;;;;;5052141;28;20173;-69
2023/09/19 03:05:38;;;;;;;2.30;1.70;;;16.10;99.90;;;;;;5050966;28;20817;-69
2023/09/19 03:08:04;;;;;;;1.83;1.67;;;16.10;99.90;;;;;;5057200;28;20224;-69
2023/09/19 03:10:30;;;;;;;2.07;1.37;;;16.20;99.90;;;;;;5055903;28;20669;-69
2023/09/19 03:12:57;;;;;;;2.83;1.97;;;16.20;99.90;;;;;;5050645;28;20453;-69
2023/09/19 03:15:22;;;;;;;1.87;1.53;;;16.30;99.90;;;;;;5051924;28;20774;-69
2023/09/19 03:17:49;;;;;;;1.53;1.40;;;16.20;99.90;;;;;;5055188;28;20442;-69
2023/09/19 03:20:18;;;;;;;2.00;1.90;;;16.30;99.90;;;;;;5050899;28;20197;-69
2023/09/19 03:22:44;;;;;;;2.40;1.70;;;16.30;99.90;;;;;;5045120;28;20933;-69
2023/09/19 03:25:11;;;;;;;4.40;3.70;;;16.30;99.90;;;;;;5052311;28;20448;-69
2023/09/19 03:27:37;;;;;;;2.60;1.97;;;16.30;99.90;;;;;;5062743;28;20423;-69
2023/09/19 03:30:08;;;;;;;3.37;1.63;;;16.30;99.90;;;;;;5064339;28;20430;-69
2023/09/19 03:32:37;;;;;;;2.87;1.73;;;16.30;99.90;;;;;;5063032;28;20522;-69
2023/09/19 03:35:05;;;;;;;2.17;1.70;;;16.30;99.90;;;;;;5064166;28;20415;-69
2023/09/19 03:37:31;;;;;;;4.40;1.70;;;16.20;99.90;;;;;;5055202;28;20427;-69
2023/09/19 03:39:57;;;;;;;2.90;2.00;;;16.30;99.90;;;;;;5053669;28;20816;-69
2023/09/19 03:42:25;;;;;;;1.77;1.67;;;16.30;99.90;;;;;;5067161;28;20431;-69
2023/09/19 03:44:52;;;;;;;1.90;1.70;;;16.30;99.90;;;;;;5063448;28;20563;-69
2023/09/19 03:47:18;;;;;;;1.70;1.60;;;16.30;99.90;;;;;;5053587;28;20526;-69
2023/09/19 03:49:44;;;;;;;2.53;1.87;;;16.30;99.90;;;;;;5056401;28;20415;-69
2023/09/19 03:52:10;;;;;;;3.57;2.00;;;16.30;99.90;;;;;;5072301;28;20411;-69
2023/09/19 03:54:35;;;;;;;1.73;1.63;;;16.40;99.90;;;;;;5052186;28;20734;-69
2023/09/19 03:57:01;;;;;;;4.23;2.17;;;16.40;99.90;;;;;;5052790;28;20181;-69
2023/09/19 03:59:27;;;;;;;4.60;1.73;;;16.40;99.90;;;;;;5061496;28;20199;-69
2023/09/19 04:01:55;;;;;;;1.70;1.60;;;16.40;99.90;;;;;;5060658;28;20190;-69
2023/09/19 04:04:21;;;;;;;2.10;1.90;;;16.40;99.90;;;;;;5051529;28;20455;-69
2023/09/19 04:06:46;;;;;;;4.60;1.77;;;16.30;99.90;;;;;;5048794;28;20424;-69
2023/09/19 04:09:13;;;;;;;2.60;2.40;;;16.30;99.90;;;;;;5059388;28;20182;-69
2023/09/19 04:11:38;;;;;;;1.63;1.53;;;16.30;99.90;;;;;;5045541;28;20208;-69
2023/09/19 04:14:04;;;;;;;2.80;2.00;;;16.20;99.90;;;;;;5051815;28;20420;-69
2023/09/19 04:16:30;;;;;;;2.50;2.30;;;16.10;99.90;;;;;;5052075;28;20177;-69
2023/09/19 04:18:55;;;;;;;2.90;1.50;;;16.10;99.90;;;;;;5063318;28;20428;-69
2023/09/19 04:21:21;;;;;;;1.50;1.40;;;16.10;99.90;;;;;;5066228;28;20685;-69
2023/09/19 04:23:46;;;;;;;2.00;1.50;;;16.00;99.90;;;;;;5064365;28;20295;-69
2023/09/19 04:26:12;;;;;;;3.47;2.30;;;16.00;99.90;;;;;;5064582;28;20210;-69
2023/09/19 04:28:39;;;;;;;1.80;1.70;;;15.90;99.90;;;;;;5049266;28;20177;-69
2023/09/19 04:31:05;;;;;;;2.67;2.47;;;16.00;99.90;;;;;;5050139;28;20216;-69
2023/09/19 04:33:30;;;;;;;1.90;1.67;;;15.90;99.90;;;;;;5053270;28;20952;-69
2023/09/19 04:35:56;;;;;;;5.70;2.13;;;15.90;99.90;;;;;;5056517;28;20578;-69
2023/09/19 04:38:21;;;;;;;3.93;3.23;;;16.00;99.90;;;;;;5054269;28;20181;-69
2023/09/19 04:40:47;;;;;;;5.17;2.83;;;16.00;99.90;;;;;;5064524;28;20565;-69
2023/09/19 04:43:15;;;;;;;3.17;2.17;;;16.00;99.90;;;;;;5071505;28;20169;-69
2023/09/19 04:45:41;;;;;;;3.13;1.80;;;16.00;99.90;;;;;;5061062;28;20469;-69
2023/09/19 04:48:08;;;;;;;2.30;2.10;;;16.00;99.90;;;;;;5052738;28;20435;-69
2023/09/19 04:50:34;;;;;;;2.50;1.87;;;16.10;99.90;;;;;;5053634;28;20461;-69
2023/09/19 04:53:00;;;;;;;2.10;1.90;;;16.30;99.90;;;;;;5055386;28;20499;-69
2023/09/19 04:55:26;;;;;;;2.53;1.73;;;16.20;99.90;;;;;;5055488;28;20169;-69
2023/09/19 04:57:53;;;;;;;2.33;2.13;;;16.20;99.90;;;;;;5064900;28;20434;-69
2023/09/19 05:00:23;;;;;;;3.30;3.00;;;16.30;99.90;;;;;;5066902;28;20245;-69
2023/09/19 05:02:55;;;;;;;5.10;3.50;;;16.30;99.90;;;;;;5061413;28;20481;-69
2023/09/19 05:05:22;;;;;;;3.43;2.37;;;16.20;99.90;;;;;;5049424;28;20853;-69
2023/09/19 05:07:48;;;;;;;2.30;2.10;;;16.10;99.90;;;;;;5055740;28;21010;-69
2023/09/19 05:10:14;;;;;;;1.80;1.70;;;16.10;99.90;;;;;;5066341;28;20447;-68
2023/09/19 05:12:40;;;;;;;2.33;1.87;;;16.00;99.90;;;;;;5054970;28;20182;-68
2023/09/19 05:15:07;;;;;;;3.67;2.20;;;16.00;99.90;;;;;;5052950;28;20444;-68
2023/09/19 05:17:35;;;;;;;2.20;2.00;;;15.90;99.90;;;;;;5060414;28;20997;-68
2023/09/19 05:20:15;;;;;;;5.23;2.73;;;16.00;99.90;;;;;;5051072;28;20483;-68
2023/09/19 05:22:43;;;;;;;5.53;2.50;;;15.90;99.90;;;;;;5050626;28;20423;-68
2023/09/19 05:25:10;;;;;;;2.57;2.40;;;15.80;99.90;;;;;;5056183;28;20962;-68
2023/09/19 05:27:35;;;;;;;4.10;2.63;;;15.80;99.90;;;;;;5054415;28;20964;-68
2023/09/19 05:30:01;;;;;;;3.40;2.70;;;15.70;99.90;;;;;;5061202;28;20447;-68
2023/09/19 05:32:26;;;;;;;3.93;2.87;;;15.70;99.90;;;;;;5072374;28;20242;-68
2023/09/19 05:34:56;;;;;;;3.03;2.80;;;15.70;99.90;;;;;;5060548;28;20719;-69
2023/09/19 05:37:23;;;;;;;3.90;2.27;;;15.70;99.90;;;;;;5053680;28;20187;-68
2023/09/19 05:39:48;;;;;;;3.33;2.40;;;15.70;99.90;;;;;;5052994;28;20432;-69
2023/09/19 05:42:14;;;;;;;2.50;2.30;;;15.70;99.90;;;;;;5062980;28;20439;-68
2023/09/19 05:44:40;;;;;;;2.67;2.47;;;15.70;99.90;;;;;;5054134;28;20197;-68
2023/09/19 05:47:08;;;;;;;4.40;2.13;;;15.80;99.90;;;;;;5052822;28;20221;-69
2023/09/19 05:49:37;;;;;;;2.87;2.67;;;15.80;99.90;;;;;;5057582;28;20174;-69
2023/09/19 05:52:04;;;;;;;2.17;2.07;;;16.00;99.90;;;;;;5049947;28;20420;-69
2023/09/19 05:54:30;;;;;;;2.80;2.60;;;16.10;99.90;;;;;;5073202;28;20423;-68
2023/09/19 05:56:57;;;;;;;5.50;3.30;;;16.10;99.90;;;;;;5070689;28;20444;-69
2023/09/19 05:59:23;;;;;;;4.40;3.90;;;16.10;99.90;;;;;;5063169;28;20169;-68
2023/09/19 06:01:48;;;;;;;2.63;2.43;;;16.10;99.90;;;;;;5060057;28;20503;-68
2023/09/19 06:04:14;;;;;;;2.80;2.23;;;16.00;99.90;;;;;;5052204;28;20209;-68
2023/09/19 06:06:39;;;;;;;3.43;2.47;;;15.90;99.90;;;;;;5058423;28;20265;-68
2023/09/19 06:09:08;;;;;;;2.97;2.37;;;15.80;99.90;;;;;;5059588;28;20232;-68
2023/09/19 06:11:34;;;;;;;4.23;1.73;;;15.90;99.90;;;;;;5059605;28;20698;-68
2023/09/19 06:14:02;;;;;;;4.33;2.13;;;15.80;99.90;;;;;;5052684;28;20427;-68
2023/09/19 06:16:28;;;;;;;2.47;2.30;;;16.30;99.90;;;;;;5051924;28;20835;-68
2023/09/19 06:18:55;;;;;;;2.27;2.10;;;16.30;99.90;;;;;;5049622;28;20786;-68
2023/09/19 06:21:22;;;;;;;5.00;2.80;;;16.10;99.90;;;;;;5047188;28;20501;-68
2023/09/19 06:23:47;;;;;;;3.10;2.50;;;16.00;99.90;;;;;;5053384;28;20463;-68
2023/09/19 06:26:13;;;;;;;3.30;2.53;;;15.80;99.90;;;;;;5053987;28;20424;-68
2023/09/19 06:28:38;;;;;;;4.13;3.73;;;15.70;99.90;;;;;;5054013;28;20243;-68
2023/09/19 06:31:09;;;;;;;3.37;2.80;;;15.60;99.90;;;;;;5052194;28;20865;-68
2023/09/19 06:33:38;;;;;;;2.87;2.60;;;15.70;99.90;;;;;;5053145;28;20176;-68
2023/09/19 06:36:04;;;;;;;3.83;2.40;;;15.70;99.90;;;;;;5053685;28;20925;-68
2023/09/19 06:38:31;;;;;;;2.70;2.50;;;15.60;99.90;;;;;;5053709;28;20455;-68
2023/09/19 06:40:57;;;;;;;4.17;2.20;;;15.60;99.90;;;;;;5053756;28;20973;-68
2023/09/19 06:43:23;;;;;;;3.47;3.17;;;15.70;99.90;;;;;;5053592;28;20497;-68
2023/09/19 06:45:50;;;;;;;2.37;2.27;;;15.70;99.90;;;;;;5053758;28;20467;-68
2023/09/19 06:48:15;;;;;;;3.03;2.80;;;15.70;99.90;;;;;;5053526;28;21011;-68
2023/09/19 06:50:44;;;;;;;2.90;2.60;;;15.80;99.90;;;;;;5051431;28;20455;-68
2023/09/19 06:53:09;;;;;;;3.00;2.67;;;15.90;99.90;;;;;;5053036;28;20201;-68
2023/09/19 06:55:36;;;;;;;3.00;2.80;;;16.10;99.90;;;;;;5053402;28;20420;-69
2023/09/19 06:58:02;;;;;;;2.27;2.07;;;16.10;99.90;;;;;;5053513;28;20412;-69
2023/09/19 07:00:28;;;;;;;3.20;2.20;;;16.30;99.90;;;;;;5053248;28;20454;-70
2023/09/19 07:03:03;;;;;;;2.70;2.50;;;16.40;99.90;;;;;;5053020;28;20177;-69
2023/09/19 07:05:30;;;;;;;3.47;1.93;;;16.60;99.90;;;;;;5050728;28;20470;-69
2023/09/19 07:07:58;;;;;;;6.03;3.03;;;16.80;99.90;;;;;;5052964;28;20431;-69
2023/09/19 07:10:26;;;;;;;3.13;2.83;;;17.00;99.90;;;;;;5052804;28;20472;-70
2023/09/19 07:12:58;;;;;;;2.63;2.20;;;17.20;99.90;;;;;;5051827;28;20428;-69
2023/09/19 07:15:25;;;;;;;3.33;2.60;;;17.30;99.90;;;;;;5052977;28;20446;-69
2023/09/19 07:17:55;;;;;;;2.90;2.40;;;17.40;99.90;;;;;;5045749;28;20536;-70
2023/09/19 07:20:23;;;;;;;3.00;2.70;;;17.40;99.90;;;;;;5048520;28;21106;-69
2023/09/19 07:22:50;;;;;;;5.43;4.17;;;17.60;99.90;;;;;;5044683;28;20436;-68
2023/09/19 07:25:16;;;;;;;6.47;4.10;;;17.90;99.90;;;;;;5051517;28;20518;-69
2023/09/19 07:27:42;;;;;;;2.80;2.60;;;18.20;99.90;;;;;;5050474;28;20466;-70
2023/09/19 07:30:09;;;;;;;2.40;2.10;;;18.50;99.90;;;;;;5050881;28;20198;-69
2023/09/19 07:32:36;;;;;;;3.30;2.37;;;18.70;99.90;;;;;;5051571;28;20408;-69
2023/09/19 07:35:03;;;;;;;2.43;2.23;;;18.60;99.90;;;;;;5051335;28;20416;-69
2023/09/19 07:37:31;;;;;;;3.10;2.13;;;18.90;99.90;;;;;;5050798;28;20785;-70
2023/09/19 07:39:56;;;;;;;3.43;2.67;;;19.00;99.90;;;;;;5052078;28;20424;-69
2023/09/19 07:42:22;;;;;;;2.60;2.40;;;18.70;99.90;;;;;;5051550;28;20442;-68
2023/09/19 07:44:50;;;;;;;3.40;2.00;;;18.90;99.90;;;;;;5052112;28;20193;-69
2023/09/19 07:47:16;;;;;;;2.20;1.90;;;19.20;99.90;;;;;;5052585;28;20244;-70
2023/09/19 07:49:42;;;;;;;3.03;2.33;;;19.40;99.90;;;;;;5051763;28;20451;-70
2023/09/19 07:52:09;;;;;;;1.87;1.77;;;19.70;99.90;;;;;;5049910;28;20678;-70
2023/09/19 07:54:35;;;;;;;2.23;2.03;;;20.00;99.90;;;;;;5051960;28;20416;-69
2023/09/19 07:57:01;;;;;;;4.37;3.97;;;19.50;99.90;;;;;;5052271;28;20431;-69
2023/09/19 07:59:27;;;;;;;2.20;2.00;;;19.40;99.90;;;;;;5052413;28;20784;-69
2023/09/19 08:01:53;;;;;;;2.90;2.60;;;19.30;99.90;;;;;;5052257;28;20487;-69
2023/09/19 08:04:19;;;;;;;1.87;1.77;;;19.10;99.90;;;;;;5051722;28;20502;-69
2023/09/19 08:06:44;;;;;;;2.53;1.83;;;19.00;99.90;;;;;;5052435;28;20173;-70
2023/09/19 08:09:12;;;;;;;4.17;2.83;;;19.40;99.90;;;;;;5051139;28;20549;-70
2023/09/19 08:11:39;;;;;;;2.23;1.80;;;19.70;99.90;;;;;;5051862;28;20201;-70
2023/09/19 08:14:05;;;;;;;2.90;1.77;;;20.20;99.90;;;;;;5051862;28;20955;-69
2023/09/19 08:16:31;;;;;;;5.80;2.97;;;20.30;99.90;;;;;;5051978;28;20501;-69
2023/09/19 08:18:56;;;;;;;2.90;2.17;;;21.00;99.90;;;;;;5051894;28;20447;-69
2023/09/19 08:21:23;;;;;;;3.00;1.97;;;21.30;99.90;;;;;;5051940;28;20197;-69
2023/09/19 08:23:49;;;;;;;2.63;2.10;;;21.00;99.90;;;;;;5050416;28;20208;-68
2023/09/19 08:26:15;;;;;;;1.83;1.70;;;20.70;99.90;;;;;;5051133;28;20940;-69
2023/09/19 08:28:40;;;;;;;2.27;1.73;;;20.80;99.90;;;;;;5051937;28;20169;-69
2023/09/19 08:31:08;;;;;;;1.97;1.77;;;21.20;99.90;;;;;;5051331;28;20187;-70
2023/09/19 08:33:35;;;;;;;2.00;1.80;;;21.10;99.90;;;;;;5051511;28;20170;-69
2023/09/19 08:36:07;;;;;;;5.87;1.57;;;20.90;99.90;;;;;;5051869;28;20785;-69
2023/09/19 08:38:34;;;;;;;2.53;2.33;;;20.80;99.90;;;;;;5050789;28;20486;-69
2023/09/19 08:41:04;;;;;;;1.97;1.87;;;20.70;99.90;;;;;;5051614;28;20850;-68
2023/09/19 08:43:30;;;;;;;2.47;1.53;;;20.70;99.90;;;;;;5051539;28;20408;-69
2023/09/19 08:46:15;;;;;;;2.73;2.53;;;20.30;99.90;;;;;;5051717;28;20936;-69
2023/09/19 08:48:59;;;;;;;2.90;1.60;;;20.30;99.90;;;;;;5051880;28;20434;-69
2023/09/19 08:51:39;;;;;;;4.53;3.10;;;20.10;99.90;;;;;;5051676;28;20493;-69
2023/09/19 08:54:13;;;;;;;1.93;1.77;;;20.00;99.90;;;;;;5049684;28;20431;-69
2023/09/19 08:56:39;;;;;;;3.63;3.33;;;20.40;99.90;;;;;;5050338;28;20435;-69
2023/09/19 08:59:09;;;;;;;3.73;1.83;;;20.80;99.90;;;;;;5051610;28;20428;-69
2023/09/19 09:01:35;;;;;;;1.70;1.60;;;21.70;99.90;;;;;;5051592;28;20474;-69
2023/09/19 09:04:02;;;;;;;1.97;1.73;;;22.10;99.90;;;;;;5051224;28;20456;-68
2023/09/19 09:06:29;;;;;;;2.47;1.63;;;23.10;99.90;;;;;;5051602;28;20423;-69
2023/09/19 09:08:55;;;;;;;1.70;1.60;;;23.50;99.90;;;;;;5051494;28;20420;-68
2023/09/19 09:11:23;;;;;;;2.00;1.80;;;23.60;99.90;;;;;;5048731;28;20845;-69
2023/09/19 09:13:49;;;;;;;3.10;1.87;;;22.60;99.90;;;;;;5050501;28;21199;-69
2023/09/19 09:16:18;;;;;;;3.33;2.17;;;22.40;99.90;;;;;;5051437;28;20452;-69
2023/09/19 09:18:52;;;;;;;1.80;1.70;;;23.20;99.90;;;;;;5051385;28;20671;-69
2023/09/19 09:21:18;;;;;;;4.70;1.63;;;23.50;99.90;;;;;;5051335;28;20451;-68
2023/09/19 09:23:44;;;;;;;2.00;1.67;;;23.70;99.90;;;;;;5051277;28;20914;-69
2023/09/19 09:26:10;;;;;;;5.40;2.00;;;24.20;99.90;;;;;;5049469;28;20431;-69
2023/09/19 09:28:44;;;;;;;1.90;1.60;;;24.60;99.90;;;;;;5051400;28;20180;-69
2023/09/19 09:31:22;;;;;;;2.03;1.67;;;24.60;99.90;;;;;;5051347;28;20190;-69
2023/09/19 09:33:56;;;;;;;4.43;1.70;;;24.50;99.90;;;;;;5050977;28;20408;-69
2023/09/19 09:36:41;;;;;;;2.87;2.30;;;25.00;99.90;;;;;;5052797;28;20419;-70
2023/09/19 09:39:24;;;;;;;1.80;1.40;;;24.70;99.90;;;;;;5055422;28;20412;-71
2023/09/19 09:41:50;;;;;;;3.20;2.00;;;23.80;99.90;;;;;;5055203;28;20972;-70
2023/09/19 09:44:18;;;;;;;3.07;1.83;;;23.20;99.90;;;;;;5057014;28;20541;-71
2023/09/19 09:49:27;;;;;;;1.60;1.50;;;25.00;99.90;;;;;;5049657;28;20424;-70
2023/09/19 09:52:05;;;;;;;2.73;1.37;;;24.60;99.90;;;;;;5037147;28;20926;-70
2023/09/19 09:54:36;;;;;;;1.60;1.50;;;24.10;99.90;;;;;;5053632;28;20433;-70
2023/09/19 09:57:44;;;;;;;1.50;1.40;;;23.80;99.90;;;;;;5053209;28;20435;-70
2023/09/19 10:02:39;;;;;;;1.97;1.77;;;22.60;99.90;;;;;;5054130;28;20454;-70
2023/09/19 10:05:32;;;;;;;2.40;1.80;;;22.20;99.90;;;;;;5053851;28;20479;-70
2023/09/19 10:08:12;;;;;;;1.77;1.67;;;22.60;99.90;;;;;;5054502;28;20447;-69
2023/09/19 10:13:12;;;;;;;1.73;1.60;;;23.40;99.90;;;;;;5050990;28;20515;-69
2023/09/19 10:15:38;;;;;;;2.93;2.07;;;24.50;99.70;;;;;;5053514;28;20543;-68
2023/09/19 10:18:08;;;;;;;2.33;2.07;;;25.90;96.20;;;;;;5054087;28;20914;-70
2023/09/19 10:20:38;;;;;;;3.17;2.60;;;26.70;93.60;;;;;;5054125;28;20535;-69
2023/09/19 10:23:12;;;;;;;3.27;1.90;;;26.80;91.30;;;;;;5053868;28;20424;-70
2023/09/19 10:25:39;;;;;;;1.73;1.60;;;28.10;87.30;;;;;;5053990;28;20554;-68
2023/09/19 10:28:13;;;;;;;2.67;1.60;;;28.70;81.60;;;;;;5052317;28;20427;-69
2023/09/19 10:30:44;;;;;;;1.97;1.33;;;29.30;75.10;;;;;;5045655;28;20440;-67
2023/09/19 10:33:11;;;;;;;2.70;1.67;;;29.50;68.60;;;;;;5053746;28;20998;-70
2023/09/19 10:35:42;;;;;;;1.50;1.40;;;29.10;67.40;;;;;;5053870;28;20557;-69
2023/09/19 10:38:10;;;;;;;1.90;1.80;;;28.70;66.80;;;;;;5053978;28;20503;-70
2023/09/19 10:40:40;;;;;;;3.30;1.90;;;30.00;65.40;;;;;;5053584;28;20444;-71
2023/09/19 10:43:06;;;;;;;2.30;1.83;;;30.20;61.90;;;;;;5052566;28;20440;-70
2023/09/19 10:45:34;;;;;;;1.73;1.57;;;30.60;61.50;;;;;;5053614;28;20471;-70
2023/09/19 10:48:04;;;;;;;2.90;1.57;;;30.70;58.00;;;;;;5052908;28;20216;-70
2023/09/19 10:50:41;;;;;;;2.90;1.83;;;30.70;55.90;;;;;;5053577;28;21190;-72
2023/09/19 10:53:10;;;;;;;2.23;1.60;;;32.10;54.90;;;;;;5052227;28;20835;-71
2023/09/19 10:55:37;;;;;;;2.33;2.03;;;32.20;52.40;;;;;;5053057;28;20466;-70
2023/09/19 10:58:23;;;;;;;2.17;2.07;;;31.80;52.60;;;;;;5052704;28;20420;-71
2023/09/19 11:00:52;;;;;;;2.13;1.87;;;31.40;52.50;;;;;;5051226;28;21042;-70
2023/09/19 11:03:19;;;;;;;3.40;1.90;;;30.20;52.00;;;;;;5052979;28;20424;-71
2023/09/19 11:06:18;;;;;;;4.80;2.23;;;29.20;53.30;;;;;;5052904;28;20452;-70
2023/09/19 11:11:39;;;;;;;2.33;2.10;;;28.80;55.20;;;;;;5053731;28;20491;-69
2023/09/19 11:14:23;;;;;;;2.67;2.40;;;29.40;54.70;;;;;;5051037;28;20432;-69
2023/09/19 11:17:11;;;;;;;2.30;2.10;;;30.20;52.60;;;;;;5045113;28;20521;-69
2023/09/19 11:22:57;;;;;;;3.50;1.63;;;31.40;52.50;;;;;;5053050;28;20424;-70
2023/09/19 11:25:41;;;;;;;2.10;2.00;;;31.10;52.10;;;;;;5052866;28;20495;-70
2023/09/19 11:28:08;;;;;;;2.63;1.70;;;31.80;50.50;;;;;;5052902;28;20416;-70
2023/09/19 11:30:39;;;;;;;3.30;1.73;;;30.40;50.10;;;;;;5051395;28;20451;-69
2023/09/19 11:36:06;;;;;;;1.37;1.27;;;28.30;53.20;;;;;;5052993;28;20411;-69
2023/09/19 11:38:49;;;;;;;1.80;1.30;;;27.40;55.20;;;;;;5052688;28;20442;-68
2023/09/19 11:41:25;;;;;;;3.60;1.60;;;26.90;56.40;;;;;;5052382;28;20442;-69
2023/09/19 11:43:51;;;;;;;2.10;1.90;;;26.70;57.30;;;;;;5052234;28;20501;-69
2023/09/19 11:46:21;;;;;;;2.50;1.53;;;27.00;57.00;;;;;;5052717;28;20513;-69
2023/09/19 11:48:49;;;;;;;3.20;1.97;;;28.70;55.10;;;;;;5049632;28;20938;-70
2023/09/19 11:51:21;;;;;;;3.17;2.20;;;29.60;52.30;;;;;;5051549;28;20452;-68
2023/09/19 11:53:50;;;;;;;4.10;1.80;;;29.80;52.20;;;;;;5052205;28;20423;-70
2023/09/19 11:56:23;;;;;;;2.50;1.73;;;31.60;48.80;;;;;;5052376;28;20416;-69
2023/09/19 11:58:56;;;;;;;4.13;1.60;;;31.10;49.50;;;;;;5051519;28;20496;-68
2023/09/19 12:01:28;;;;;;;2.03;1.93;;;29.20;51.00;;;;;;5052110;28;20800;-68
2023/09/19 12:03:59;;;;;;;4.30;1.97;;;28.20;53.10;;;;;;5051659;28;20481;-69
2023/09/19 12:06:29;;;;;;;3.27;1.60;;;26.60;55.10;;;;;;5050129;28;20515;-69
2023/09/19 12:08:57;;;;;;;4.90;2.13;;;25.40;58.80;;;;;;5052180;28;20463;-69
2023/09/19 12:11:28;;;;;;;3.77;1.67;;;25.60;59.10;;;;;;5052007;28;20836;-68
2023/09/19 12:13:56;;;;;;;1.70;1.60;;;25.70;59.10;;;;;;5052271;28;20412;-68
2023/09/19 12:16:22;;;;;;;3.10;1.70;;;25.70;59.90;;;;;;5051953;28;20419;-68
2023/09/19 12:18:50;;;;;;;3.47;1.30;;;27.30;57.70;;;;;;5052061;28;20466;-69
2023/09/19 12:21:22;;;;;;;3.63;1.57;;;27.00;56.40;;;;;;5051955;28;20185;-68
2023/09/19 12:24:05;;;;;;;3.13;1.93;;;26.60;58.00;;;;;;5048516;28;21075;-69
2023/09/19 12:26:40;;;;;;;1.80;1.53;;;26.70;58.20;;;;;;5051743;28;20430;-69
2023/09/19 12:29:20;;;;;;;2.00;1.80;;;28.20;55.60;;;;;;5044543;28;20420;-68
2023/09/19 12:32:03;;;;;;;2.90;1.43;;;30.30;52.50;;;;;;5051555;28;20432;-69
2023/09/19 12:34:35;;;;;;;2.17;1.60;;;30.50;50.40;;;;;;5051398;28;20428;-69
2023/09/19 12:37:23;;;;;;;1.70;1.60;;;28.90;53.00;;;;;;5051715;28;20941;-69
2023/09/19 12:39:53;;;;;;;1.67;1.50;;;30.90;52.40;;;;;;5049897;28;20435;-69
2023/09/19 12:42:24;;;;;;;2.10;1.90;;;32.50;48.70;;;;;;5048915;28;20428;-69
2023/09/19 12:44:56;;;;;;;2.77;1.83;;;32.10;48.10;;;;;;5048596;28;20480;-70
2023/09/19 12:47:25;;;;;;;2.83;1.90;;;32.40;47.60;;;;;;5049000;28;20519;-68
2023/09/19 12:50:18;;;;;;;1.63;1.40;;;32.20;47.30;;;;;;5051407;28;20922;-68
2023/09/19 12:52:49;;;;;;;2.03;1.90;;;33.00;46.10;;;;;;5051335;28;20431;-70
2023/09/19 12:55:26;;;;;;;1.87;1.77;;;31.70;47.30;;;;;;5051137;28;20443;-70
2023/09/19 12:58:05;;;;;;;1.77;1.67;;;32.00;47.50;;;;;;5040029;28;20432;-69
2023/09/19 13:00:40;;;;;;;2.13;1.97;;;32.90;45.70;;;;;;5051035;28;21504;-70
2023/09/19 13:03:32;;;;;;;2.50;1.60;;;34.50;43.10;;;;;;5049000;28;20432;-68
2023/09/19 13:06:00;;;;;;;3.17;1.77;;;34.50;43.30;;;;;;5045846;28;20550;-68
2023/09/19 13:08:32;;;;;;;1.90;1.80;;;34.10;42.80;;;;;;5051440;28;20415;-69
2023/09/19 13:11:12;;;;;;;2.63;2.43;;;34.30;42.80;;;;;;5052084;28;20455;-70
2023/09/19 13:13:53;;;;;;;1.50;1.40;;;34.40;42.20;;;;;;5055139;28;20407;-69
2023/09/19 13:16:22;;;;;;;2.40;2.20;;;33.00;42.30;;;;;;5055495;28;20427;-68
2023/09/19 13:18:52;;;;;;;2.37;1.93;;;31.60;45.50;;;;;;5052743;28;20971;-69